sensor_id;sensor_type;location;lat;lon;timestamp;temperature;humidity
16867;DHT22;8550;52.596;13.320;2023-06-24T00:02:18;17.00;99.90
16867;DHT22;8550;52.596;13.320;2023-06-24T00:07:25;16.90;99.90
16867;DHT22;8550;52.596;13.320;2023-06-24T00:12:28;16.90;99.90
16867;DHT22;8550;52.596;13.320;2023-06-24T00:17:29;16.80;99.90
16867;DHT22;8550;52.596;13.320;2023-06-24T00:22:33;16.70;99.90
16867;DHT22;8550;52.596;13.320;2023-06-24T00:27:35;16.60;99.90
16867;DHT22;8550;52.596;13.320;2023-06-24T00:32:37;16.50;99.90
16867;DHT22;8550;52.596;13.320;2023-06-24T00:37:40;16.40;99.90
16867;DHT22;8550;52.596;13.320;2023-06-24T00:42:45;16.30;99.90
16867;DHT22;8550;52.596;13.320;2023-06-24T00:47:48;16.30;99.90
16867;DHT22;8550;52.596;13.320;2023-06-24T00:52:51;16.30;99.90
16867;DHT22;8550;52.596;13.320;2023-06-24T00:57:53;16.40;99.90
16867;DHT22;8550;52.596;13.320;2023-06-24T01:02:55;16.30;99.90
16867;DHT22;8550;52.596;13.320;2023-06-24T01:07:59;16.20;99.90
16867;DHT22;8550;52.596;13.320;2023-06-24T01:13:01;16.20;99.90
16867;DHT22;8550;52.596;13.320;2023-06-24T01:18:08;16.20;99.90
16867;DHT22;8550;52.596;13.320;2023-06-24T01:23:40;16.20;99.90
16867;DHT22;8550;52.596;13.320;2023-06-24T01:34:24;16.10;99.90
16867;DHT22;8550;52.596;13.320;2023-06-24T01:39:27;16.10;99.90
16867;DHT22;8550;52.596;13.320;2023-06-24T01:44:34;16.00;99.90
16867;DHT22;8550;52.596;13.320;2023-06-24T01:49:40;16.00;99.90
16867;DHT22;8550;52.596;13.320;2023-06-24T01:54:44;15.90;99.90
16867;DHT22;8550;52.596;13.320;2023-06-24T01:59:48;15.80;99.90
16867;DHT22;8550;52.596;13.320;2023-06-24T02:04:54;15.80;99.90
16867;DHT22;8550;52.596;13.320;2023-06-24T02:09:58;15.70;99.90
16867;DHT22;8550;52.596;13.320;2023-06-24T02:15:02;15.70;99.90
16867;DHT22;8550;52.596;13.320;2023-06-24T02:20:08;15.60;99.90
16867;DHT22;8550;52.596;13.320;2023-06-24T02:25:12;15.50;99.90
16867;DHT22;8550;52.596;13.320;2023-06-24T02:30:14;15.50;99.90
16867;DHT22;8550;52.596;13.320;2023-06-24T02:35:18;15.50;99.90
16867;DHT22;8550;52.596;13.320;2023-06-24T02:40:20;15.40;99.90
16867;DHT22;8550;52.596;13.320;2023-06-24T02:45:22;15.40;99.90
16867;DHT22;8550;52.596;13.320;2023-06-24T02:50:26;15.50;99.90
16867;DHT22;8550;52.596;13.320;2023-06-24T02:55:29;15.40;99.90
16867;DHT22;8550;52.596;13.320;2023-06-24T03:00:31;15.30;99.90
16867;DHT22;8550;52.596;13.320;2023-06-24T03:05:36;15.30;99.90
16867;DHT22;8550;52.596;13.320;2023-06-24T03:10:38;15.20;99.90
16867;DHT22;8550;52.596;13.320;2023-06-24T03:15:40;15.20;99.90
16867;DHT22;8550;52.596;13.320;2023-06-24T03:20:43;15.20;99.90
16867;DHT22;8550;52.596;13.320;2023-06-24T03:25:46;15.20;99.90
16867;DHT22;8550;52.596;13.320;2023-06-24T03:30:48;15.10;99.90
16867;DHT22;8550;52.596;13.320;2023-06-24T03:35:51;15.10;99.90
16867;DHT22;8550;52.596;13.320;2023-06-24T03:40:53;15.10;99.90
16867;DHT22;8550;52.596;13.320;2023-06-24T03:45:55;15.00;99.90
16867;DHT22;8550;52.596;13.320;2023-06-24T03:50:58;15.10;99.90
16867;DHT22;8550;52.596;13.320;2023-06-24T03:56:00;15.10;99.90
16867;DHT22;8550;52.596;13.320;2023-06-24T04:01:03;15.10;99.90
16867;DHT22;8550;52.596;13.320;2023-06-24T04:06:06;15.10;99.90
16867;DHT22;8550;52.596;13.320;2023-06-24T04:11:08;15.10;99.90
16867;DHT22;8550;52.596;13.320;2023-06-24T04:16:10;15.10;99.90
16867;DHT22;8550;52.596;13.320;2023-06-24T04:21:13;15.10;99.90
16867;DHT22;8550;52.596;13.320;2023-06-24T04:26:16;15.20;99.90
16867;DHT22;8550;52.596;13.320;2023-06-24T04:31:18;15.40;99.90
16867;DHT22;8550;52.596;13.320;2023-06-24T04:36:21;15.40;99.90
16867;DHT22;8550;52.596;13.320;2023-06-24T04:41:23;15.50;99.90
16867;DHT22;8550;52.596;13.320;2023-06-24T04:46:26;15.70;99.90
16867;DHT22;8550;52.596;13.320;2023-06-24T04:51:29;16.10;99.90
16867;DHT22;8550;52.596;13.320;2023-06-24T04:56:31;16.10;99.90
16867;DHT22;8550;52.596;13.320;2023-06-24T05:01:33;16.10;99.90
16867;DHT22;8550;52.596;13.320;2023-06-24T05:06:36;16.10;99.90
16867;DHT22;8550;52.596;13.320;2023-06-24T05:11:38;16.30;99.90
16867;DHT22;8550;52.596;13.320;2023-06-24T05:16:40;16.50;99.90
16867;DHT22;8550;52.596;13.320;2023-06-24T05:21:43;16.50;99.90
16867;DHT22;8550;52.596;13.320;2023-06-24T05:26:48;16.60;99.90
16867;DHT22;8550;52.596;13.320;2023-06-24T05:31:50;16.60;99.90
16867;DHT22;8550;52.596;13.320;2023-06-24T05:36:53;16.50;99.90
16867;DHT22;8550;52.596;13.320;2023-06-24T05:41:55;16.60;99.90
16867;DHT22;8550;52.596;13.320;2023-06-24T05:46:57;16.70;99.90
16867;DHT22;8550;52.596;13.320;2023-06-24T05:52:00;17.00;99.90
16867;DHT22;8550;52.596;13.320;2023-06-24T05:57:03;17.20;99.90
16867;DHT22;8550;52.596;13.320;2023-06-24T06:02:06;17.30;99.90
16867;DHT22;8550;52.596;13.320;2023-06-24T06:07:10;17.50;99.90
16867;DHT22;8550;52.596;13.320;2023-06-24T06:12:12;17.70;99.90
16867;DHT22;8550;52.596;13.320;2023-06-24T06:17:14;17.70;99.90
16867;DHT22;8550;52.596;13.320;2023-06-24T06:22:18;17.80;99.90
16867;DHT22;8550;52.596;13.320;2023-06-24T06:27:20;17.90;99.90
16867;DHT22;8550;52.596;13.320;2023-06-24T06:32:22;18.20;99.90
16867;DHT22;8550;52.596;13.320;2023-06-24T06:37:25;18.30;99.90
16867;DHT22;8550;52.596;13.320;2023-06-24T06:42:29;18.30;99.90
16867;DHT22;8550;52.596;13.320;2023-06-24T06:47:31;18.30;99.90
16867;DHT22;8550;52.596;13.320;2023-06-24T06:52:34;18.30;99.90
16867;DHT22;8550;52.596;13.320;2023-06-24T06:57:36;18.40;99.90
16867;DHT22;8550;52.596;13.320;2023-06-24T07:02:38;18.60;99.90
16867;DHT22;8550;52.596;13.320;2023-06-24T07:07:43;18.60;99.90
16867;DHT22;8550;52.596;13.320;2023-06-24T07:12:46;18.80;99.90
16867;DHT22;8550;52.596;13.320;2023-06-24T07:17:48;18.80;99.90
16867;DHT22;8550;52.596;13.320;2023-06-24T07:22:51;18.70;99.90
16867;DHT22;8550;52.596;13.320;2023-06-24T07:27:53;18.90;99.90
16867;DHT22;8550;52.596;13.320;2023-06-24T07:32:55;19.30;99.90
16867;DHT22;8550;52.596;13.320;2023-06-24T07:37:59;19.60;99.90
16867;DHT22;8550;52.596;13.320;2023-06-24T07:43:01;19.50;99.90
16867;DHT22;8550;52.596;13.320;2023-06-24T07:48:04;19.70;99.90
16867;DHT22;8550;52.596;13.320;2023-06-24T07:53:08;19.90;99.90
16867;DHT22;8550;52.596;13.320;2023-06-24T07:58:10;19.70;99.90
16867;DHT22;8550;52.596;13.320;2023-06-24T08:03:12;20.00;99.90
16867;DHT22;8550;52.596;13.320;2023-06-24T08:08:16;19.80;99.90
16867;DHT22;8550;52.596;13.320;2023-06-24T08:13:20;20.10;99.90
16867;DHT22;8550;52.596;13.320;2023-06-24T08:18:22;19.50;99.90
16867;DHT22;8550;52.596;13.320;2023-06-24T08:23:25;19.60;99.90
16867;DHT22;8550;52.596;13.320;2023-06-24T08:33:48;20.10;99.90
16867;DHT22;8550;52.596;13.320;2023-06-24T08:38:54;20.30;99.90
16867;DHT22;8550;52.596;13.320;2023-06-24T08:49:59;20.30;99.90
16867;DHT22;8550;52.596;13.320;2023-06-24T08:55:07;20.50;99.90
16867;DHT22;8550;52.596;13.320;2023-06-24T09:00:12;21.10;99.90
16867;DHT22;8550;52.596;13.320;2023-06-24T09:05:15;20.50;99.90
16867;DHT22;8550;52.596;13.320;2023-06-24T09:10:31;20.60;99.90
16867;DHT22;8550;52.596;13.320;2023-06-24T09:15:33;20.70;99.90
16867;DHT22;8550;52.596;13.320;2023-06-24T09:20:35;21.20;99.90
16867;DHT22;8550;52.596;13.320;2023-06-24T09:25:55;20.90;99.90
16867;DHT22;8550;52.596;13.320;2023-06-24T09:31:07;21.50;99.90
16867;DHT22;8550;52.596;13.320;2023-06-24T09:36:12;21.50;99.90
16867;DHT22;8550;52.596;13.320;2023-06-24T09:41:15;21.50;99.90
16867;DHT22;8550;52.596;13.320;2023-06-24T09:46:18;21.70;99.90
16867;DHT22;8550;52.596;13.320;2023-06-24T09:51:20;21.80;99.90
16867;DHT22;8550;52.596;13.320;2023-06-24T09:56:25;22.00;99.90
16867;DHT22;8550;52.596;13.320;2023-06-24T10:01:28;22.20;99.90
16867;DHT22;8550;52.596;13.320;2023-06-24T10:06:30;22.40;99.90
16867;DHT22;8550;52.596;13.320;2023-06-24T10:11:33;22.60;99.90
16867;DHT22;8550;52.596;13.320;2023-06-24T10:16:35;22.50;99.90
16867;DHT22;8550;52.596;13.320;2023-06-24T10:21:45;22.50;99.90
16867;DHT22;8550;52.596;13.320;2023-06-24T10:26:49;22.30;99.90
16867;DHT22;8550;52.596;13.320;2023-06-24T10:31:53;22.40;99.90
16867;DHT22;8550;52.596;13.320;2023-06-24T10:36:56;23.00;99.90
16867;DHT22;8550;52.596;13.320;2023-06-24T10:42:25;23.20;99.90
16867;DHT22;8550;52.596;13.320;2023-06-24T10:47:29;23.40;99.90
16867;DHT22;8550;52.596;13.320;2023-06-24T10:52:31;23.00;99.90
16867;DHT22;8550;52.596;13.320;2023-06-24T10:57:35;23.50;99.90
16867;DHT22;8550;52.596;13.320;2023-06-24T11:02:41;23.50;99.90
16867;DHT22;8550;52.596;13.320;2023-06-24T11:07:50;23.90;98.20
16867;DHT22;8550;52.596;13.320;2023-06-24T11:12:53;24.00;98.90
16867;DHT22;8550;52.596;13.320;2023-06-24T11:17:55;25.50;95.70
16867;DHT22;8550;52.596;13.320;2023-06-24T11:22:57;27.60;85.60
16867;DHT22;8550;52.596;13.320;2023-06-24T11:28:00;28.80;82.20
16867;DHT22;8550;52.596;13.320;2023-06-24T11:33:02;30.10;67.80
16867;DHT22;8550;52.596;13.320;2023-06-24T11:38:04;30.80;65.90
16867;DHT22;8550;52.596;13.320;2023-06-24T11:43:07;31.10;57.40
16867;DHT22;8550;52.596;13.320;2023-06-24T11:48:09;32.60;58.20
16867;DHT22;8550;52.596;13.320;2023-06-24T11:53:11;32.60;55.90
16867;DHT22;8550;52.596;13.320;2023-06-24T11:58:19;34.50;51.80
16867;DHT22;8550;52.596;13.320;2023-06-24T12:03:22;34.40;50.30
16867;DHT22;8550;52.596;13.320;2023-06-24T12:08:25;33.30;49.60
16867;DHT22;8550;52.596;13.320;2023-06-24T12:13:29;34.30;47.30
16867;DHT22;8550;52.596;13.320;2023-06-24T12:18:31;34.40;44.90
16867;DHT22;8550;52.596;13.320;2023-06-24T12:23:33;33.60;48.30
16867;DHT22;8550;52.596;13.320;2023-06-24T12:28:36;34.40;47.90
16867;DHT22;8550;52.596;13.320;2023-06-24T12:33:38;35.30;45.60
16867;DHT22;8550;52.596;13.320;2023-06-24T12:38:40;34.30;46.10
16867;DHT22;8550;52.596;13.320;2023-06-24T12:43:43;34.50;47.30
16867;DHT22;8550;52.596;13.320;2023-06-24T12:48:45;34.00;48.80
16867;DHT22;8550;52.596;13.320;2023-06-24T12:53:47;34.40;47.50
16867;DHT22;8550;52.596;13.320;2023-06-24T12:58:50;33.10;47.60
16867;DHT22;8550;52.596;13.320;2023-06-24T13:03:52;32.90;51.30
16867;DHT22;8550;52.596;13.320;2023-06-24T13:08:54;35.00;46.10
16867;DHT22;8550;52.596;13.320;2023-06-24T13:13:58;35.20;47.30
16867;DHT22;8550;52.596;13.320;2023-06-24T13:19:00;33.10;48.40
16867;DHT22;8550;52.596;13.320;2023-06-24T13:24:03;30.80;51.60
16867;DHT22;8550;52.596;13.320;2023-06-24T13:29:07;30.10;55.00
16867;DHT22;8550;52.596;13.320;2023-06-24T13:34:09;29.20;56.60
16867;DHT22;8550;52.596;13.320;2023-06-24T13:39:11;28.90;57.00
16867;DHT22;8550;52.596;13.320;2023-06-24T13:44:14;28.50;57.80
16867;DHT22;8550;52.596;13.320;2023-06-24T13:49:17;29.00;58.10
16867;DHT22;8550;52.596;13.320;2023-06-24T13:54:19;28.90;58.80
16867;DHT22;8550;52.596;13.320;2023-06-24T13:59:22;29.00;57.70
16867;DHT22;8550;52.596;13.320;2023-06-24T14:04:24;28.90;59.10
16867;DHT22;8550;52.596;13.320;2023-06-24T14:09:26;28.90;60.40
16867;DHT22;8550;52.596;13.320;2023-06-24T14:14:30;28.70;59.70
16867;DHT22;8550;52.596;13.320;2023-06-24T14:19:32;28.60;60.30
16867;DHT22;8550;52.596;13.320;2023-06-24T14:24:35;29.50;57.70
16867;DHT22;8550;52.596;13.320;2023-06-24T14:29:39;30.60;56.60
16867;DHT22;8550;52.596;13.320;2023-06-24T14:34:41;32.30;52.20
16867;DHT22;8550;52.596;13.320;2023-06-24T14:39:43;32.80;50.20
16867;DHT22;8550;52.596;13.320;2023-06-24T14:44:47;32.90;50.10
16867;DHT22;8550;52.596;13.320;2023-06-24T14:49:49;32.20;51.30
16867;DHT22;8550;52.596;13.320;2023-06-24T14:54:51;33.00;49.60
16867;DHT22;8550;52.596;13.320;2023-06-24T14:59:54;33.50;49.30
16867;DHT22;8550;52.596;13.320;2023-06-24T15:04:56;30.80;52.40
16867;DHT22;8550;52.596;13.320;2023-06-24T15:09:59;28.60;57.70
16867;DHT22;8550;52.596;13.320;2023-06-24T15:15:02;28.00;62.40
16867;DHT22;8550;52.596;13.320;2023-06-24T15:20:06;27.20;63.50
16867;DHT22;8550;52.596;13.320;2023-06-24T15:25:09;27.20;64.90
16867;DHT22;8550;52.596;13.320;2023-06-24T15:30:13;27.20;64.20
16867;DHT22;8550;52.596;13.320;2023-06-24T15:35:15;26.40;67.80
16867;DHT22;8550;52.596;13.320;2023-06-24T15:40:17;26.70;69.20
16867;DHT22;8550;52.596;13.320;2023-06-24T15:45:20;26.80;67.40
16867;DHT22;8550;52.596;13.320;2023-06-24T15:50:22;27.10;66.40
16867;DHT22;8550;52.596;13.320;2023-06-24T15:55:24;26.90;68.50
16867;DHT22;8550;52.596;13.320;2023-06-24T16:00:28;26.80;65.60
16867;DHT22;8550;52.596;13.320;2023-06-24T16:05:30;26.60;66.50
16867;DHT22;8550;52.596;13.320;2023-06-24T16:10:32;26.70;67.90
16867;DHT22;8550;52.596;13.320;2023-06-24T16:15:35;26.70;66.60
16867;DHT22;8550;52.596;13.320;2023-06-24T16:20:37;26.80;67.50
16867;DHT22;8550;52.596;13.320;2023-06-24T16:25:39;26.80;67.00
16867;DHT22;8550;52.596;13.320;2023-06-24T16:30:42;26.70;68.10
16867;DHT22;8550;52.596;13.320;2023-06-24T16:35:45;27.00;65.40
16867;DHT22;8550;52.596;13.320;2023-06-24T16:40:46;26.30;67.00
16867;DHT22;8550;52.596;13.320;2023-06-24T16:45:50;25.90;70.90
16867;DHT22;8550;52.596;13.320;2023-06-24T16:50:52;25.60;72.90
16867;DHT22;8550;52.596;13.320;2023-06-24T16:55:54;26.30;69.60
16867;DHT22;8550;52.596;13.320;2023-06-24T17:00:57;27.40;65.30
16867;DHT22;8550;52.596;13.320;2023-06-24T17:05:59;27.80;64.10
16867;DHT22;8550;52.596;13.320;2023-06-24T17:11:01;28.20;61.80
16867;DHT22;8550;52.596;13.320;2023-06-24T17:16:05;28.80;59.40
16867;DHT22;8550;52.596;13.320;2023-06-24T17:21:06;29.50;58.50
16867;DHT22;8550;52.596;13.320;2023-06-24T17:26:09;31.00;55.10
16867;DHT22;8550;52.596;13.320;2023-06-24T17:31:13;31.10;54.00
16867;DHT22;8550;52.596;13.320;2023-06-24T17:36:15;32.20;51.90
16867;DHT22;8550;52.596;13.320;2023-06-24T17:41:17;32.50;51.50
16867;DHT22;8550;52.596;13.320;2023-06-24T17:46:21;33.40;49.40
16867;DHT22;8550;52.596;13.320;2023-06-24T17:51:23;32.60;49.50
16867;DHT22;8550;52.596;13.320;2023-06-24T17:56:25;30.70;52.70
16867;DHT22;8550;52.596;13.320;2023-06-24T18:01:30;28.80;58.00
16867;DHT22;8550;52.596;13.320;2023-06-24T18:06:32;27.90;59.50
16867;DHT22;8550;52.596;13.320;2023-06-24T18:11:34;27.00;61.50
16867;DHT22;8550;52.596;13.320;2023-06-24T18:16:41;27.00;63.50
16867;DHT22;8550;52.596;13.320;2023-06-24T18:21:48;27.10;63.10
16867;DHT22;8550;52.596;13.320;2023-06-24T18:26:51;26.50;64.30
16867;DHT22;8550;52.596;13.320;2023-06-24T18:31:54;26.70;66.60
16867;DHT22;8550;52.596;13.320;2023-06-24T18:36:56;26.40;67.30
16867;DHT22;8550;52.596;13.320;2023-06-24T18:41:58;25.80;70.50
16867;DHT22;8550;52.596;13.320;2023-06-24T18:47:01;25.20;74.30
16867;DHT22;8550;52.596;13.320;2023-06-24T18:52:04;24.70;79.40
16867;DHT22;8550;52.596;13.320;2023-06-24T18:57:06;24.30;86.40
16867;DHT22;8550;52.596;13.320;2023-06-24T19:02:09;23.90;92.40
16867;DHT22;8550;52.596;13.320;2023-06-24T19:07:11;23.30;97.80
16867;DHT22;8550;52.596;13.320;2023-06-24T19:12:14;22.90;99.90
16867;DHT22;8550;52.596;13.320;2023-06-24T19:17:17;22.50;99.90
16867;DHT22;8550;52.596;13.320;2023-06-24T19:22:20;22.30;99.90
16867;DHT22;8550;52.596;13.320;2023-06-24T19:27:22;21.90;99.90
16867;DHT22;8550;52.596;13.320;2023-06-24T19:32:25;21.50;99.90
16867;DHT22;8550;52.596;13.320;2023-06-24T19:37:29;21.30;99.90
16867;DHT22;8550;52.596;13.320;2023-06-24T19:42:31;21.10;99.90
16867;DHT22;8550;52.596;13.320;2023-06-24T19:47:34;21.00;99.90
16867;DHT22;8550;52.596;13.320;2023-06-24T19:52:36;20.60;99.90
16867;DHT22;8550;52.596;13.320;2023-06-24T19:57:39;20.50;99.90
16867;DHT22;8550;52.596;13.320;2023-06-24T20:02:43;20.30;99.90
16867;DHT22;8550;52.596;13.320;2023-06-24T20:07:45;20.10;99.90
16867;DHT22;8550;52.596;13.320;2023-06-24T20:12:47;19.90;99.90
16867;DHT22;8550;52.596;13.320;2023-06-24T20:17:50;19.80;99.90
16867;DHT22;8550;52.596;13.320;2023-06-24T20:22:52;19.60;99.90
16867;DHT22;8550;52.596;13.320;2023-06-24T20:27:54;19.50;99.90
16867;DHT22;8550;52.596;13.320;2023-06-24T20:32:57;19.40;99.90
16867;DHT22;8550;52.596;13.320;2023-06-24T20:37:59;19.40;99.90
16867;DHT22;8550;52.596;13.320;2023-06-24T20:43:01;19.20;99.90
16867;DHT22;8550;52.596;13.320;2023-06-24T20:48:05;19.00;99.90
16867;DHT22;8550;52.596;13.320;2023-06-24T20:53:07;19.00;99.90
16867;DHT22;8550;52.596;13.320;2023-06-24T20:58:09;18.80;99.90
16867;DHT22;8550;52.596;13.320;2023-06-24T21:03:12;18.70;99.90
16867;DHT22;8550;52.596;13.320;2023-06-24T21:08:14;18.60;99.90
16867;DHT22;8550;52.596;13.320;2023-06-24T21:13:16;18.50;99.90
16867;DHT22;8550;52.596;13.320;2023-06-24T21:18:19;18.40;99.90
16867;DHT22;8550;52.596;13.320;2023-06-24T21:23:21;18.30;99.90
16867;DHT22;8550;52.596;13.320;2023-06-24T21:28:23;18.30;99.90
16867;DHT22;8550;52.596;13.320;2023-06-24T21:33:27;18.20;99.90
16867;DHT22;8550;52.596;13.320;2023-06-24T21:38:28;18.10;99.90
16867;DHT22;8550;52.596;13.320;2023-06-24T21:43:30;17.90;99.90
16867;DHT22;8550;52.596;13.320;2023-06-24T21:48:35;17.80;99.90
16867;DHT22;8550;52.596;13.320;2023-06-24T21:53:37;17.90;99.90
16867;DHT22;8550;52.596;13.320;2023-06-24T21:58:39;17.70;99.90
16867;DHT22;8550;52.596;13.320;2023-06-24T22:03:42;17.70;99.90
16867;DHT22;8550;52.596;13.320;2023-06-24T22:08:44;17.60;99.90
16867;DHT22;8550;52.596;13.320;2023-06-24T22:13:46;17.60;99.90
16867;DHT22;8550;52.596;13.320;2023-06-24T22:18:49;17.50;99.90
16867;DHT22;8550;52.596;13.320;2023-06-24T22:23:51;17.40;99.90
16867;DHT22;8550;52.596;13.320;2023-06-24T22:28:53;17.40;99.90
16867;DHT22;8550;52.596;13.320;2023-06-24T22:33:57;17.40;99.90
16867;DHT22;8550;52.596;13.320;2023-06-24T22:38:58;17.20;99.90
16867;DHT22;8550;52.596;13.320;2023-06-24T22:44:01;17.20;99.90
16867;DHT22;8550;52.596;13.320;2023-06-24T22:49:04;17.30;99.90
16867;DHT22;8550;52.596;13.320;2023-06-24T22:54:06;17.10;99.90
16867;DHT22;8550;52.596;13.320;2023-06-24T22:59:09;17.20;99.90
16867;DHT22;8550;52.596;13.320;2023-06-24T23:04:13;17.20;99.90
16867;DHT22;8550;52.596;13.320;2023-06-24T23:09:16;17.00;99.90
16867;DHT22;8550;52.596;13.320;2023-06-24T23:14:18;17.00;99.90
16867;DHT22;8550;52.596;13.320;2023-06-24T23:19:22;17.20;99.90
16867;DHT22;8550;52.596;13.320;2023-06-24T23:24:25;17.10;99.90
16867;DHT22;8550;52.596;13.320;2023-06-24T23:29:30;17.00;99.90
16867;DHT22;8550;52.596;13.320;2023-06-24T23:34:39;16.80;99.90
16867;DHT22;8550;52.596;13.320;2023-06-24T23:39:41;16.70;99.90
16867;DHT22;8550;52.596;13.320;2023-06-24T23:44:43;16.70;99.90
16867;DHT22;8550;52.596;13.320;2023-06-24T23:49:47;16.80;99.90
16867;DHT22;8550;52.596;13.320;2023-06-24T23:54:48;16.90;99.90
16867;DHT22;8550;52.596;13.320;2023-06-24T23:59:50;16.90;99.90
